Bowling Green Warren County Regional Airport Bowling Green US
ICAO: KBWG
IATA: BWG
Category: Medium
Scheduled Services: No

Elevation: 547 ft
TransAlt. 18000 ft.

Airport Communications:
ASOS:127.825
MEMPHIS CNTR:133.85
LOUISVILLE RDO:122.2
CTAF/UNICOM:123

KBWG Zoom In..

If you have problems with the map follow the link
https://www.worldairports.se/pages/airport.php?
ICAO=KBWG

Runways:

(A) RW 03 length 6499 ft width 150 ft
ILS 108.75 / hdg 32

(B) RW 12 length 3955 ft width 150 ft
---- / hdg 122

(C) RW 21 length 6499 ft width 150 ft
---- / hdg 212

(D) RW 30 length 3955 ft width 150 ft
---- / hdg 302

Location; KBWG
Day. 14 / Time. 21.53 Zulu
* Altimeter: 29.92
* Temperature: 11° c. 51.8°f.
* Wind from: 050° Speed 06 kn.
Dewpoint: 09° c.
Visibility: 10 Statute Miles.
Clouds: Overcast 1100 ft.

KBWG 142153Z AUTO 05006KT 10SM OVC011 11/09 A2992 RMK AO2 RAE04 SLP131 P0000 T01110094


Wind From 050°
Speed 06 kn.

 
 
jpsmedia.com for Web Design worldairports.se 2018   terms of use